MSC Davos — A8IG3 — position and weather

sailwx.info

Track history (hours):
 
Tides and Currents Weather Stations Pressure Air Temp Water Temp Dewpoint Dewpoint Depression Visibility Wind Speed Wind Dir Waves Ship Positions

MSC Davos

Last reported at 2015-Sep-02 21:27 UTC. Time now 2015-Sep-02 21:52 UTC.
Position N 33°44' W 118°15'.

Length 210.9 m; beam 32.3 m; draft 12 m.

Type: Cargo ship. MMSI: 636090972.

Date/timePositionNaut miles runAvg speedWind from/ knotsBaromVisibWave heightAir tempDewpointWater temp
2015-Sep-02 21:27N 33°44' W 118°15'0 0.0
2015-Sep-02 20:27N 33°44' W 118°15'0 0.0
2015-Sep-02 19:33N 33°44' W 118°15'0 0.0
2015-Sep-02 18:33N 33°44' W 118°15'0 0.0
2015-Sep-02 15:21N 33°44' W 118°15'0 0.0
2015-Sep-02 14:30N 33°44' W 118°15'0 0.0
2015-Sep-02 13:30N 33°44' W 118°15'0 0.0
2015-Sep-02 12:33N 33°44' W 118°15'0 0.0
2015-Sep-02 11:33N 33°44' W 118°15'0 0.0
2015-Sep-02 10:27N 33°44' W 118°15'5 5.3
2015-Sep-02 09:33N 33°39' W 118°13'6 6.3
2015-Sep-02 08:32N 33°34' W 118°09'9 9.0
2015-Sep-02 07:33N 33°26' W 118°05'1212.1
2015-Sep-02 06:33N 33°14' W 118°00'1211.7
2015-Sep-02 05:33N 33°03' W 117°56'1111.4
2015-Sep-02 04:33N 32°53' W 117°51'1111.2
2015-Sep-02 03:33N 32°42' W 117°47'1110.9
2015-Sep-02 02:33N 32°32' W 117°42'1111.4
2015-Sep-02 01:33N 32°21' W 117°37'1211.6
2015-Sep-02 00:33N 32°11' W 117°31'16 7.2
2015-Sep-01 22:18N 31°55' W 117°27'811.2
2015-Sep-01 21:33N 31°47' W 117°24'24811.3
2015-Aug-31 23:33N 27°54' W 115°46'1111.2
2015-Aug-31 22:33N 27°45' W 115°38'1111.4
2015-Aug-31 21:33N 27°35' W 115°31'1211.5
2015-Aug-31 20:33N 27°26' W 115°23'1211.5
2015-Aug-31 19:33N 27°17' W 115°16'1111.4
2015-Aug-31 18:33N 27°07' W 115°08'1111.3
2015-Aug-31 17:33N 26°58' W 115°01'1512.8
2015-Aug-31 16:24N 26°46' W 114°51'1517.2
2015-Aug-31 15:31N 26°33' W 114°42'  
2015-Aug-26 18:00N 15°18' W 097°00'32113.4 260 / 61013.227.0 0.530.524.130.0
2015-Aug-25 18:00N 13°48' W 091°42'   170 / 51012.427.0 0.531.824.529.0
Track history (hours):
 
Tides and Currents Weather Stations Pressure Air Temp Water Temp Dewpoint Dewpoint Depression Visibility Wind Speed Wind Dir Waves Ship Positions

MSC Davos

Last reported at 2015-Sep-02 21:27 UTC. Time now 2015-Sep-02 21:52 UTC.
Position N 33°44' W 118°15'.

Length 210.9 m; beam 32.3 m; draft 12 m.

Type: Cargo ship. MMSI: 636090972.

Date/timePositionNaut miles runAvg speedWind from/ knotsBaromVisibWave heightAir tempDewpointWater temp
2015-Sep-02 21:27N 33°44' W 118°15'0 0.0
2015-Sep-02 20:27N 33°44' W 118°15'0 0.0
2015-Sep-02 19:33N 33°44' W 118°15'0 0.0
2015-Sep-02 18:33N 33°44' W 118°15'0 0.0
2015-Sep-02 15:21N 33°44' W 118°15'0 0.0
2015-Sep-02 14:30N 33°44' W 118°15'0 0.0
2015-Sep-02 13:30N 33°44' W 118°15'0 0.0
2015-Sep-02 12:33N 33°44' W 118°15'0 0.0
2015-Sep-02 11:33N 33°44' W 118°15'0 0.0
2015-Sep-02 10:27N 33°44' W 118°15'5 5.3
2015-Sep-02 09:33N 33°39' W 118°13'6 6.3
2015-Sep-02 08:32N 33°34' W 118°09'9 9.0
2015-Sep-02 07:33N 33°26' W 118°05'1212.1
2015-Sep-02 06:33N 33°14' W 118°00'1211.7
2015-Sep-02 05:33N 33°03' W 117°56'1111.4
2015-Sep-02 04:33N 32°53' W 117°51'1111.2
2015-Sep-02 03:33N 32°42' W 117°47'1110.9
2015-Sep-02 02:33N 32°32' W 117°42'1111.4
2015-Sep-02 01:33N 32°21' W 117°37'1211.6
2015-Sep-02 00:33N 32°11' W 117°31'16 7.2
2015-Sep-01 22:18N 31°55' W 117°27'811.2
2015-Sep-01 21:33N 31°47' W 117°24'24811.3
2015-Aug-31 23:33N 27°54' W 115°46'1111.2
2015-Aug-31 22:33N 27°45' W 115°38'1111.4
2015-Aug-31 21:33N 27°35' W 115°31'1211.5
2015-Aug-31 20:33N 27°26' W 115°23'1211.5
2015-Aug-31 19:33N 27°17' W 115°16'1111.4
2015-Aug-31 18:33N 27°07' W 115°08'1111.3
2015-Aug-31 17:33N 26°58' W 115°01'1512.8
2015-Aug-31 16:24N 26°46' W 114°51'1517.2
2015-Aug-31 15:31N 26°33' W 114°42'  
2015-Aug-26 18:00N 15°18' W 097°00'32113.4 260 / 61013.227.0 0.530.524.130.0
2015-Aug-25 18:00N 13°48' W 091°42'   170 / 51012.427.0 0.531.824.529.0

Dump ship's entire track history